Time;durP1;ratioP1;P1;durP2;ratioP2;P2;SDS_P1;SDS_P2;PMS_P1;PMS_P2;Temp;Humidity;BMP_temperature;BMP_pressure;BME280_temperature;BME280_humidity;BME280_pressure;Samples;Min_cycle;Max_cycle;Signal;HPM_P1;HPM_P2
2023/08/06 00:00:28;;;;;;;1.27;1.10;;;24.60;48.20;;;;;;5149357;27;45429;-71
2023/08/06 00:02:55;;;;;;;1.23;1.10;;;24.50;48.20;;;;;;5149419;27;45273;-71
2023/08/06 00:05:22;;;;;;;1.65;1.55;;;24.60;48.20;;;;;;5149460;27;45312;-71
2023/08/06 00:07:49;;;;;;;1.40;1.30;;;24.50;48.20;;;;;;5149830;27;45302;-71
2023/08/06 00:10:17;;;;;;;1.08;1.08;;;24.50;48.30;;;;;;5148828;27;45565;-70
2023/08/06 00:12:44;;;;;;;1.23;1.13;;;24.50;48.30;;;;;;5149043;27;45241;-70
2023/08/06 00:15:11;;;;;;;1.50;1.27;;;24.50;48.40;;;;;;5149202;27;45366;-70
2023/08/06 00:17:38;;;;;;;3.00;1.38;;;24.40;48.30;;;;;;5149338;27;45466;-70
2023/08/06 00:20:06;;;;;;;1.83;1.38;;;24.40;48.30;;;;;;5148809;27;45183;-71
2023/08/06 00:22:33;;;;;;;1.40;1.30;;;24.40;48.40;;;;;;5148949;27;45145;-71
2023/08/06 00:24:59;;;;;;;1.33;1.20;;;24.40;48.40;;;;;;5149137;27;45278;-70
2023/08/06 00:27:28;;;;;;;1.10;1.00;;;24.40;48.40;;;;;;5149060;27;45513;-70
2023/08/06 00:29:54;;;;;;;1.35;0.95;;;24.40;48.50;;;;;;5148732;27;45279;-70
2023/08/06 00:32:21;;;;;;;1.38;1.02;;;24.30;48.50;;;;;;5148778;27;45367;-70
2023/08/06 00:34:49;;;;;;;1.08;1.08;;;24.30;48.50;;;;;;5148929;27;45266;-70
2023/08/06 00:37:17;;;;;;;1.00;1.00;;;24.30;48.50;;;;;;5149149;27;45337;-70
2023/08/06 00:39:44;;;;;;;1.05;0.95;;;24.30;48.60;;;;;;5148727;27;47358;-70
2023/08/06 00:42:11;;;;;;;1.65;1.08;;;24.30;48.50;;;;;;5148814;27;45256;-70
2023/08/06 00:44:39;;;;;;;1.13;1.02;;;24.20;48.60;;;;;;5148745;27;45183;-70
2023/08/06 00:47:06;;;;;;;1.70;1.23;;;24.20;48.60;;;;;;5148839;27;45506;-70
2023/08/06 00:49:33;;;;;;;1.20;1.10;;;24.20;48.60;;;;;;5148500;27;45357;-71
2023/08/06 00:51:59;;;;;;;1.30;1.20;;;24.20;48.60;;;;;;5148598;27;45273;-70
2023/08/06 00:54:26;;;;;;;1.30;1.20;;;24.10;48.60;;;;;;5148295;27;45252;-70
2023/08/06 00:56:53;;;;;;;1.58;1.10;;;24.10;48.70;;;;;;5148245;27;45146;-71
2023/08/06 00:59:20;;;;;;;1.27;1.17;;;24.10;48.70;;;;;;5148523;27;45381;-70
2023/08/06 01:01:49;;;;;;;1.05;0.82;;;24.10;48.70;;;;;;5150409;27;45273;-70
2023/08/06 01:04:16;;;;;;;1.40;1.27;;;24.10;49.30;;;;;;5152254;27;45202;-71
2023/08/06 01:06:45;;;;;;;1.30;1.13;;;24.10;48.80;;;;;;5152917;27;45336;-71
2023/08/06 01:09:18;;;;;;;0.93;0.93;;;24.10;48.80;;;;;;5152078;27;45445;-71
2023/08/06 01:11:49;;;;;;;1.23;1.10;;;24.00;48.70;;;;;;5152233;27;45321;-71
2023/08/06 01:14:20;;;;;;;1.48;1.15;;;24.10;48.70;;;;;;5152115;27;45181;-71
2023/08/06 01:16:48;;;;;;;0.98;0.95;;;24.00;48.70;;;;;;5152200;27;45358;-70
2023/08/06 01:19:18;;;;;;;0.90;0.90;;;24.00;48.80;;;;;;5151785;27;45241;-70
2023/08/06 01:21:46;;;;;;;1.02;1.00;;;24.00;48.80;;;;;;5151931;27;45307;-70
2023/08/06 01:24:13;;;;;;;1.10;1.00;;;24.00;48.90;;;;;;5152032;27;45299;-70
2023/08/06 01:26:42;;;;;;;0.90;0.90;;;23.90;48.90;;;;;;5152350;27;45357;-70
2023/08/06 01:29:13;;;;;;;1.58;1.00;;;23.90;48.90;;;;;;5152078;27;45193;-70
2023/08/06 01:31:40;;;;;;;0.93;0.93;;;23.90;48.90;;;;;;5151778;27;45382;-70
2023/08/06 01:34:08;;;;;;;1.13;1.02;;;23.90;48.90;;;;;;5151753;27;45261;-70
2023/08/06 01:36:35;;;;;;;1.15;1.08;;;23.90;49.00;;;;;;5151854;27;45394;-71
2023/08/06 01:39:03;;;;;;;0.80;0.80;;;23.80;48.90;;;;;;5151453;27;46932;-71
2023/08/06 01:41:30;;;;;;;0.90;0.90;;;23.80;49.00;;;;;;5151586;27;45241;-71
2023/08/06 01:43:57;;;;;;;1.13;1.05;;;23.80;49.10;;;;;;5151942;27;45184;-71
2023/08/06 01:46:24;;;;;;;1.48;1.08;;;23.80;49.10;;;;;;5151883;27;45205;-71
2023/08/06 01:48:51;;;;;;;1.38;1.25;;;23.80;49.10;;;;;;5150655;27;45402;-70
2023/08/06 01:51:17;;;;;;;1.35;0.95;;;23.80;49.10;;;;;;5151514;27;45296;-70
2023/08/06 01:53:44;;;;;;;1.00;1.00;;;23.80;49.10;;;;;;5150871;27;45298;-71
2023/08/06 01:56:13;;;;;;;1.63;1.02;;;23.80;49.10;;;;;;5150657;27;45243;-71
2023/08/06 01:58:39;;;;;;;1.13;0.90;;;23.80;49.20;;;;;;5150065;27;45242;-70
2023/08/06 02:01:06;;;;;;;0.90;0.90;;;23.80;49.20;;;;;;5150296;27;45999;-71
2023/08/06 02:03:33;;;;;;;1.15;0.90;;;23.70;49.10;;;;;;5150379;27;45399;-72
2023/08/06 02:06:00;;;;;;;1.20;1.20;;;23.70;49.10;;;;;;5150464;27;45310;-71
2023/08/06 02:08:28;;;;;;;1.23;1.00;;;23.70;49.20;;;;;;5150069;27;45698;-71
2023/08/06 02:10:54;;;;;;;2.38;1.05;;;23.70;49.20;;;;;;5149660;27;45191;-71
2023/08/06 02:13:23;;;;;;;2.90;1.13;;;23.70;49.20;;;;;;5149897;27;45321;-71
2023/08/06 02:15:49;;;;;;;0.90;0.90;;;23.70;49.30;;;;;;5150197;27;45314;-71
2023/08/06 02:18:16;;;;;;;2.88;1.10;;;23.70;49.30;;;;;;5149822;27;45191;-70
2023/08/06 02:20:43;;;;;;;0.90;0.90;;;23.70;49.30;;;;;;5149962;27;45265;-71
2023/08/06 02:23:10;;;;;;;0.80;0.80;;;23.60;49.40;;;;;;5150289;27;45172;-71
2023/08/06 02:25:37;;;;;;;0.90;0.90;;;23.60;49.50;;;;;;5150044;27;45458;-71
2023/08/06 02:28:04;;;;;;;1.38;1.00;;;23.60;49.40;;;;;;5149895;27;46729;-71
2023/08/06 02:30:32;;;;;;;1.00;1.00;;;23.60;49.60;;;;;;5149941;27;45314;-71
2023/08/06 02:32:59;;;;;;;0.85;0.85;;;23.60;49.50;;;;;;5148915;27;45267;-71
2023/08/06 02:35:26;;;;;;;0.70;0.70;;;23.60;50.10;;;;;;5149839;27;45240;-71
2023/08/06 02:37:53;;;;;;;0.90;0.90;;;23.60;49.60;;;;;;5149232;27;45325;-70
2023/08/06 02:40:19;;;;;;;0.73;0.73;;;23.50;49.60;;;;;;5149368;27;45328;-70
2023/08/06 02:42:46;;;;;;;0.75;0.75;;;23.50;50.20;;;;;;5149524;27;45219;-71
2023/08/06 02:45:13;;;;;;;0.80;0.80;;;23.50;49.60;;;;;;5149723;27;45200;-71
2023/08/06 02:47:41;;;;;;;2.00;0.77;;;23.50;49.70;;;;;;5149211;27;47463;-71
2023/08/06 02:50:09;;;;;;;0.90;0.90;;;23.50;49.70;;;;;;5149266;27;45352;-70
2023/08/06 02:52:35;;;;;;;0.90;0.90;;;23.50;49.70;;;;;;5149357;27;45333;-71
2023/08/06 02:55:02;;;;;;;1.10;0.90;;;23.50;49.80;;;;;;5107023;27;1142034;-71
2023/08/06 02:57:29;;;;;;;1.10;1.00;;;23.50;49.80;;;;;;5150386;27;46722;-70
2023/08/06 02:59:56;;;;;;;1.05;1.00;;;23.50;49.80;;;;;;5150286;27;45196;-71
2023/08/06 03:02:23;;;;;;;0.80;0.80;;;23.40;49.70;;;;;;5150515;27;45260;-71
2023/08/06 03:04:51;;;;;;;0.90;0.90;;;23.40;49.80;;;;;;5150555;27;45313;-71
2023/08/06 03:07:18;;;;;;;0.75;0.75;;;23.40;49.70;;;;;;5150223;27;45204;-70
2023/08/06 03:09:44;;;;;;;0.77;0.77;;;23.40;49.80;;;;;;5150168;27;45282;-70
2023/08/06 03:12:11;;;;;;;1.00;1.00;;;23.40;49.80;;;;;;5150279;27;45410;-70
2023/08/06 03:14:38;;;;;;;0.90;0.90;;;23.40;49.80;;;;;;5150408;27;45305;-70
2023/08/06 03:17:05;;;;;;;0.93;0.90;;;23.40;49.90;;;;;;5148667;27;46389;-71
2023/08/06 03:19:32;;;;;;;1.48;0.63;;;23.30;49.80;;;;;;5149985;27;45183;-70
2023/08/06 03:22:00;;;;;;;1.98;1.00;;;23.30;49.80;;;;;;5150122;27;45280;-70
2023/08/06 03:24:27;;;;;;;0.95;0.75;;;23.30;49.80;;;;;;5149328;27;45403;-71
2023/08/06 03:26:54;;;;;;;0.80;0.80;;;23.30;50.40;;;;;;5149744;27;45459;-70
2023/08/06 03:29:22;;;;;;;2.53;0.90;;;23.30;49.90;;;;;;5149847;27;45311;-70
2023/08/06 03:31:48;;;;;;;0.80;0.80;;;23.30;49.90;;;;;;5149895;27;45310;-70
2023/08/06 03:34:15;;;;;;;1.42;0.80;;;23.30;49.90;;;;;;5150126;27;45403;-70
2023/08/06 03:36:42;;;;;;;1.20;0.70;;;23.30;50.00;;;;;;5149601;27;48375;-70
2023/08/06 03:39:10;;;;;;;0.60;0.60;;;23.20;50.50;;;;;;5149628;27;45436;-70
2023/08/06 03:41:37;;;;;;;1.10;0.85;;;23.20;49.90;;;;;;5149814;27;45222;-70
2023/08/06 03:44:04;;;;;;;0.90;0.90;;;23.20;49.90;;;;;;5149962;27;45319;-71
2023/08/06 03:46:33;;;;;;;1.10;1.00;;;23.20;50.00;;;;;;5149584;27;47562;-70
2023/08/06 03:49:00;;;;;;;1.33;0.70;;;23.20;50.00;;;;;;5149523;27;45278;-71
2023/08/06 03:51:27;;;;;;;0.98;0.82;;;23.10;50.00;;;;;;5149768;27;45230;-70
2023/08/06 03:53:54;;;;;;;0.70;0.70;;;23.10;50.00;;;;;;5149660;27;45577;-70
2023/08/06 03:56:22;;;;;;;0.77;0.75;;;23.10;50.00;;;;;;5149424;27;47289;-70
2023/08/06 03:58:49;;;;;;;0.98;0.73;;;23.10;50.00;;;;;;5149306;27;45427;-70
2023/08/06 04:01:16;;;;;;;0.70;0.70;;;23.10;50.00;;;;;;5148649;27;45338;-69
2023/08/06 04:03:43;;;;;;;1.23;0.88;;;23.10;50.10;;;;;;5149266;27;45316;-71
2023/08/06 04:06:10;;;;;;;1.00;0.90;;;23.10;50.00;;;;;;5149254;27;46689;-70
2023/08/06 04:08:36;;;;;;;0.88;0.88;;;23.10;50.10;;;;;;5149232;27;45271;-71
2023/08/06 04:11:03;;;;;;;0.73;0.73;;;23.00;50.00;;;;;;5149454;27;45306;-70
2023/08/06 04:13:31;;;;;;;0.70;0.70;;;23.00;50.00;;;;;;5149626;27;45447;-70
2023/08/06 04:16:02;;;;;;;0.65;0.60;;;23.00;50.10;;;;;;5149113;27;46361;-71
2023/08/06 04:18:29;;;;;;;0.65;0.65;;;23.00;50.10;;;;;;5149012;27;45357;-71
2023/08/06 04:20:57;;;;;;;0.90;0.90;;;23.00;50.10;;;;;;5149179;27;45327;-70
2023/08/06 04:23:24;;;;;;;1.00;0.50;;;23.00;50.10;;;;;;5149464;27;45122;-70
2023/08/06 04:25:50;;;;;;;0.63;0.63;;;22.90;50.10;;;;;;5148860;27;45207;-70
2023/08/06 04:28:17;;;;;;;0.70;0.70;;;22.90;50.10;;;;;;5149029;27;45204;-70
2023/08/06 04:30:45;;;;;;;0.70;0.70;;;22.90;50.20;;;;;;5149169;27;45221;-71
2023/08/06 04:33:12;;;;;;;0.75;0.73;;;22.90;50.20;;;;;;5149211;27;45306;-71
2023/08/06 04:35:39;;;;;;;1.77;0.80;;;22.90;50.80;;;;;;5148812;27;46373;-71
2023/08/06 04:38:06;;;;;;;1.00;0.80;;;22.80;50.20;;;;;;5148918;27;45228;-70
2023/08/06 04:40:34;;;;;;;0.98;0.70;;;22.80;50.20;;;;;;5148837;27;45374;-70
2023/08/06 04:43:01;;;;;;;1.70;0.80;;;22.80;50.20;;;;;;5149100;27;45407;-70
2023/08/06 04:45:28;;;;;;;0.50;0.50;;;22.90;50.30;;;;;;5148545;27;45236;-70
2023/08/06 04:47:56;;;;;;;0.57;0.52;;;22.80;50.20;;;;;;5147968;27;45241;-70
2023/08/06 04:50:23;;;;;;;0.93;0.90;;;22.80;50.20;;;;;;5148857;27;45305;-70
2023/08/06 04:52:50;;;;;;;0.80;0.80;;;22.80;50.20;;;;;;5148907;27;45285;-70
2023/08/06 04:55:17;;;;;;;0.60;0.60;;;22.80;50.20;;;;;;5148460;27;46716;-70
2023/08/06 04:57:43;;;;;;;0.90;0.70;;;22.80;50.30;;;;;;5148650;27;45190;-70
2023/08/06 05:00:10;;;;;;;1.02;0.70;;;22.70;50.30;;;;;;5148577;27;45196;-70
2023/08/06 05:02:38;;;;;;;0.60;0.60;;;22.70;50.40;;;;;;5148846;27;45319;-70
2023/08/06 05:05:07;;;;;;;1.30;0.80;;;22.70;50.40;;;;;;5148417;27;46592;-70
2023/08/06 05:07:34;;;;;;;0.60;0.60;;;22.70;50.40;;;;;;5148434;27;45146;-70
2023/08/06 05:10:00;;;;;;;0.70;0.60;;;22.70;50.40;;;;;;5148520;27;45259;-71
2023/08/06 05:12:27;;;;;;;0.82;0.65;;;22.60;50.60;;;;;;5148687;27;45408;-70
2023/08/06 05:14:54;;;;;;;0.63;0.60;;;22.60;50.60;;;;;;5148290;27;45406;-70
2023/08/06 05:17:22;;;;;;;0.73;0.50;;;22.60;50.60;;;;;;5148334;27;45317;-70
2023/08/06 05:19:49;;;;;;;0.65;0.63;;;22.60;50.60;;;;;;5148310;27;45196;-70
2023/08/06 05:22:17;;;;;;;0.80;0.60;;;22.60;50.60;;;;;;5148539;27;45470;-70
2023/08/06 05:24:44;;;;;;;0.60;0.60;;;22.60;50.70;;;;;;5145350;27;46286;-71
2023/08/06 05:27:11;;;;;;;0.65;0.65;;;22.60;50.70;;;;;;5148154;27;45294;-70
2023/08/06 05:29:38;;;;;;;1.05;0.60;;;22.50;50.80;;;;;;5148355;27;45298;-70
2023/08/06 05:32:05;;;;;;;0.63;0.63;;;22.50;51.20;;;;;;5147738;27;45328;-70
2023/08/06 05:34:32;;;;;;;0.60;0.57;;;22.50;50.70;;;;;;5147989;27;45275;-70
2023/08/06 05:36:59;;;;;;;0.70;0.70;;;22.50;50.70;;;;;;5148053;27;45225;-70
2023/08/06 05:39:27;;;;;;;0.75;0.68;;;22.50;50.80;;;;;;5148214;27;45340;-70
2023/08/06 05:41:55;;;;;;;0.73;0.73;;;22.50;50.70;;;;;;5148165;27;45443;-70
2023/08/06 05:44:21;;;;;;;0.73;0.50;;;22.50;50.70;;;;;;5148117;27;45165;-70
2023/08/06 05:46:49;;;;;;;0.50;0.50;;;22.50;51.30;;;;;;5148459;27;45209;-70
2023/08/06 05:49:16;;;;;;;0.68;0.38;;;22.50;50.70;;;;;;5151653;27;45249;-70
2023/08/06 05:51:43;;;;;;;1.60;0.50;;;22.50;50.80;;;;;;5152058;27;45316;-70
2023/08/06 05:54:10;;;;;;;2.80;0.68;;;22.50;50.70;;;;;;5151076;27;45232;-70
2023/08/06 05:56:38;;;;;;;0.50;0.50;;;22.50;50.80;;;;;;5151459;27;45193;-70
2023/08/06 05:59:05;;;;;;;2.03;0.73;;;22.50;50.80;;;;;;5151743;27;45355;-71
2023/08/06 06:01:32;;;;;;;0.63;0.60;;;22.40;50.80;;;;;;5151538;27;45349;-71
2023/08/06 06:03:59;;;;;;;0.60;0.60;;;22.40;50.70;;;;;;5151172;27;45411;-70
2023/08/06 06:06:25;;;;;;;0.40;0.40;;;22.40;50.70;;;;;;5151386;27;45188;-70
2023/08/06 06:08:52;;;;;;;2.13;0.80;;;22.40;50.70;;;;;;5151450;27;45173;-70
2023/08/06 06:11:21;;;;;;;0.50;0.47;;;22.40;50.70;;;;;;5148850;27;45247;-71
2023/08/06 06:13:51;;;;;;;1.00;0.60;;;22.40;51.30;;;;;;5151011;27;46654;-70
2023/08/06 06:16:18;;;;;;;1.17;0.57;;;22.50;51.20;;;;;;5147805;27;45215;-69
2023/08/06 06:18:45;;;;;;;0.60;0.60;;;22.50;50.60;;;;;;5150757;27;45464;-70
2023/08/06 06:21:12;;;;;;;0.50;0.50;;;22.40;50.60;;;;;;5151143;27;45442;-70
2023/08/06 06:23:38;;;;;;;0.50;0.50;;;22.40;50.70;;;;;;5150877;27;46264;-70
2023/08/06 06:26:05;;;;;;;0.90;0.70;;;22.40;50.70;;;;;;5150861;27;45203;-70
2023/08/06 06:28:32;;;;;;;0.50;0.50;;;22.40;50.70;;;;;;5150869;27;45205;-71
2023/08/06 06:31:03;;;;;;;0.50;0.47;;;22.40;50.80;;;;;;5151386;27;45334;-72
2023/08/06 06:33:30;;;;;;;0.45;0.45;;;22.40;50.90;;;;;;5150711;27;45817;-70
2023/08/06 06:35:57;;;;;;;1.95;0.80;;;22.40;50.80;;;;;;5150664;27;45236;-70
2023/08/06 06:38:24;;;;;;;0.65;0.40;;;22.40;50.90;;;;;;5151280;27;45268;-70
2023/08/06 06:40:55;;;;;;;1.00;0.60;;;22.30;50.80;;;;;;5151250;27;45286;-70
2023/08/06 06:43:22;;;;;;;0.90;0.50;;;22.30;50.80;;;;;;5150319;27;47564;-70
2023/08/06 06:45:48;;;;;;;1.52;0.70;;;22.30;50.90;;;;;;5150632;27;45199;-71
2023/08/06 06:48:16;;;;;;;0.82;0.50;;;22.30;50.90;;;;;;5150117;27;45302;-71
2023/08/06 06:50:43;;;;;;;1.20;0.50;;;22.30;51.00;;;;;;5150757;27;45217;-70
2023/08/06 06:53:10;;;;;;;0.50;0.50;;;22.30;51.00;;;;;;5150254;27;46219;-70
2023/08/06 06:55:37;;;;;;;0.43;0.43;;;22.30;51.60;;;;;;5150431;27;45309;-70
2023/08/06 06:58:04;;;;;;;0.50;0.50;;;22.20;51.00;;;;;;5149746;27;45255;-70
2023/08/06 07:00:30;;;;;;;1.08;0.70;;;22.20;51.10;;;;;;5149931;27;45294;-70
2023/08/06 07:02:57;;;;;;;0.50;0.50;;;22.20;51.00;;;;;;5149604;27;47282;-70
2023/08/06 07:05:25;;;;;;;1.58;0.50;;;22.20;51.00;;;;;;5150082;27;45375;-70
2023/08/06 07:07:53;;;;;;;0.40;0.40;;;22.20;51.00;;;;;;5150562;27;45217;-70
2023/08/06 07:10:20;;;;;;;3.33;0.63;;;22.20;51.00;;;;;;5150565;27;45397;-71
2023/08/06 07:12:47;;;;;;;0.45;0.45;;;22.20;51.00;;;;;;5150028;27;45456;-70
2023/08/06 07:15:14;;;;;;;0.40;0.40;;;22.20;51.00;;;;;;5150002;27;45344;-70
2023/08/06 07:17:40;;;;;;;0.57;0.57;;;22.20;51.00;;;;;;5150194;27;45193;-70
2023/08/06 07:20:08;;;;;;;1.25;0.70;;;22.20;51.00;;;;;;5150331;27;45197;-70
2023/08/06 07:22:36;;;;;;;0.30;0.30;;;22.20;51.00;;;;;;5149933;27;46439;-71
2023/08/06 07:25:04;;;;;;;0.90;0.70;;;22.20;51.00;;;;;;5149968;27;45455;-70
2023/08/06 07:27:30;;;;;;;1.60;0.40;;;22.20;51.00;;;;;;5150225;27;45123;-70
2023/08/06 07:29:58;;;;;;;0.60;0.60;;;22.20;51.00;;;;;;5150100;27;45415;-70
2023/08/06 07:32:25;;;;;;;0.70;0.68;;;22.20;51.10;;;;;;5149711;27;46679;-71
2023/08/06 07:34:56;;;;;;;0.77;0.50;;;22.20;51.10;;;;;;5149805;27;45293;-71
2023/08/06 07:37:23;;;;;;;0.55;0.55;;;22.20;51.10;;;;;;5149854;27;45188;-71
2023/08/06 07:39:51;;;;;;;2.22;0.70;;;22.20;51.10;;;;;;5150105;27;45210;-70
2023/08/06 07:42:20;;;;;;;0.47;0.30;;;22.20;51.10;;;;;;5149608;27;46602;-70
2023/08/06 07:44:52;;;;;;;0.60;0.60;;;22.20;51.00;;;;;;5149714;27;45191;-70
2023/08/06 07:47:19;;;;;;;1.35;0.63;;;22.20;51.00;;;;;;5149710;27;45311;-70
2023/08/06 07:49:46;;;;;;;0.50;0.50;;;22.10;51.00;;;;;;5149085;27;45423;-70
2023/08/06 07:52:12;;;;;;;1.75;0.77;;;22.10;51.00;;;;;;5149269;27;45482;-70
2023/08/06 07:54:39;;;;;;;1.48;0.75;;;22.20;51.00;;;;;;5149275;27;45408;-70
2023/08/06 07:57:08;;;;;;;1.60;0.65;;;22.20;51.00;;;;;;5149477;27;45408;-70
2023/08/06 07:59:34;;;;;;;0.50;0.50;;;22.20;51.00;;;;;;5149583;27;45406;-71
2023/08/06 08:02:01;;;;;;;0.55;0.40;;;22.20;51.00;;;;;;5149182;27;45297;-71
2023/08/06 08:04:28;;;;;;;0.52;0.52;;;22.20;51.10;;;;;;5149268;27;45253;-71
2023/08/06 08:06:55;;;;;;;0.88;0.50;;;22.10;51.00;;;;;;5149172;27;45257;-71
2023/08/06 08:09:22;;;;;;;0.82;0.60;;;22.20;51.10;;;;;;5149200;27;45399;-71
2023/08/06 08:11:50;;;;;;;0.82;0.68;;;22.10;50.90;;;;;;5149065;27;45543;-71
2023/08/06 08:14:18;;;;;;;0.50;0.50;;;22.10;51.00;;;;;;5149201;27;45208;-71
2023/08/06 08:16:45;;;;;;;0.50;0.50;;;22.10;51.10;;;;;;5149033;27;45255;-71
2023/08/06 08:19:11;;;;;;;0.75;0.40;;;22.10;51.00;;;;;;5149417;27;45353;-71
2023/08/06 08:21:38;;;;;;;0.88;0.57;;;22.10;51.00;;;;;;5149253;27;45298;-71
2023/08/06 08:24:05;;;;;;;0.50;0.50;;;22.10;51.10;;;;;;5149082;27;45292;-71
2023/08/06 08:26:32;;;;;;;0.43;0.43;;;22.10;51.10;;;;;;5149084;27;45371;-71
2023/08/06 08:28:59;;;;;;;0.50;0.50;;;22.10;51.00;;;;;;5149218;27;45394;-71
2023/08/06 08:31:28;;;;;;;0.90;0.50;;;22.10;51.00;;;;;;5149117;27;45568;-71
2023/08/06 08:33:55;;;;;;;0.50;0.50;;;22.10;51.70;;;;;;5148137;27;45404;-70
2023/08/06 08:36:22;;;;;;;1.17;0.50;;;22.10;51.10;;;;;;5148904;27;45126;-70
2023/08/06 08:38:49;;;;;;;0.57;0.50;;;22.10;51.10;;;;;;5149032;27;45197;-70
2023/08/06 08:41:16;;;;;;;0.35;0.35;;;22.10;51.20;;;;;;5148628;27;45752;-71
2023/08/06 08:43:43;;;;;;;0.30;0.30;;;22.10;51.20;;;;;;5148582;27;45360;-71
2023/08/06 08:46:11;;;;;;;0.40;0.40;;;22.10;51.20;;;;;;5148797;27;45320;-71
2023/08/06 08:48:39;;;;;;;0.80;0.70;;;22.00;51.10;;;;;;5148993;27;45464;-70
2023/08/06 08:51:06;;;;;;;0.50;0.50;;;22.00;51.20;;;;;;5148382;27;45285;-71
2023/08/06 08:53:32;;;;;;;0.90;0.60;;;22.10;51.20;;;;;;5141914;27;45354;-72
2023/08/06 08:55:59;;;;;;;0.40;0.40;;;22.10;51.20;;;;;;5125839;27;45489;-71
2023/08/06 08:58:26;;;;;;;0.45;0.45;;;22.10;51.20;;;;;;5125724;27;45370;-71
2023/08/06 09:00:53;;;;;;;0.63;0.50;;;22.10;51.20;;;;;;5127374;27;45520;-71
2023/08/06 09:03:20;;;;;;;0.73;0.43;;;22.10;51.20;;;;;;5127898;27;45186;-72
2023/08/06 09:05:50;;;;;;;0.50;0.38;;;22.10;51.30;;;;;;5127504;27;45382;-72
2023/08/06 09:08:19;;;;;;;1.10;0.55;;;22.10;51.30;;;;;;5128058;27;45410;-72
2023/08/06 09:10:46;;;;;;;0.65;0.40;;;22.10;51.50;;;;;;5127847;27;46367;-72
2023/08/06 09:13:13;;;;;;;0.30;0.30;;;22.10;51.40;;;;;;5127164;27;45285;-72
2023/08/06 09:15:40;;;;;;;0.40;0.40;;;22.10;51.50;;;;;;5127741;27;45391;-72
2023/08/06 09:18:11;;;;;;;0.95;0.70;;;22.10;51.60;;;;;;5127407;27;45310;-71
2023/08/06 09:20:38;;;;;;;0.30;0.30;;;22.00;51.60;;;;;;5126692;27;46690;-73
2023/08/06 09:23:10;;;;;;;0.40;0.40;;;22.00;51.70;;;;;;5125005;27;45340;-73
2023/08/06 09:25:38;;;;;;;0.52;0.47;;;22.00;51.60;;;;;;5127535;27;45438;-73
2023/08/06 09:28:05;;;;;;;1.20;0.38;;;22.10;51.70;;;;;;5121482;27;45438;-72
2023/08/06 09:30:33;;;;;;;0.30;0.30;;;22.10;51.60;;;;;;5125558;27;45412;-73
2023/08/06 09:33:00;;;;;;;1.63;0.63;;;22.10;52.00;;;;;;5124623;27;45407;-72
2023/08/06 09:35:29;;;;;;;0.70;0.55;;;22.10;51.60;;;;;;5117793;27;45414;-72
2023/08/06 09:37:56;;;;;;;0.93;0.82;;;22.10;51.80;;;;;;5116994;27;45543;-72
2023/08/06 09:40:28;;;;;;;0.82;0.50;;;22.10;52.40;;;;;;5117028;27;45540;-72
2023/08/06 09:42:55;;;;;;;1.92;0.52;;;22.10;51.90;;;;;;5119194;27;45292;-73
2023/08/06 09:45:22;;;;;;;0.40;0.40;;;22.10;51.90;;;;;;5118918;27;45489;-72
2023/08/06 09:47:50;;;;;;;0.75;0.50;;;22.10;51.90;;;;;;5129106;27;45435;-73
2023/08/06 09:50:18;;;;;;;0.40;0.40;;;22.10;51.80;;;;;;5116898;27;46376;-71
2023/08/06 09:52:45;;;;;;;0.65;0.50;;;22.10;51.90;;;;;;5116900;27;45468;-72
2023/08/06 09:55:12;;;;;;;0.68;0.50;;;22.10;52.60;;;;;;5126116;27;45518;-72
2023/08/06 09:57:41;;;;;;;0.45;0.30;;;22.10;52.00;;;;;;5139085;27;45377;-73
2023/08/06 10:00:09;;;;;;;2.92;0.50;;;22.10;52.00;;;;;;5146478;27;45459;-73
2023/08/06 10:02:40;;;;;;;1.38;0.60;;;22.10;51.80;;;;;;5140002;27;45405;-71
2023/08/06 10:05:07;;;;;;;1.25;0.47;;;22.10;51.80;;;;;;5149885;27;45578;-71
2023/08/06 10:07:34;;;;;;;0.70;0.60;;;22.10;51.80;;;;;;5146593;27;45281;-73
2023/08/06 10:10:01;;;;;;;0.22;0.22;;;22.10;51.70;;;;;;5150222;27;46349;-73
2023/08/06 10:12:29;;;;;;;0.45;0.40;;;22.10;51.70;;;;;;5149573;27;45447;-71
2023/08/06 10:14:58;;;;;;;0.40;0.40;;;22.10;51.90;;;;;;5150797;27;45222;-71
2023/08/06 10:17:25;;;;;;;1.15;0.60;;;22.10;52.00;;;;;;5141193;27;45450;-72
2023/08/06 10:19:54;;;;;;;2.78;0.60;;;22.10;52.00;;;;;;5140308;27;46419;-71
2023/08/06 10:22:21;;;;;;;0.40;0.40;;;22.10;52.10;;;;;;5143498;27;45299;-71
2023/08/06 10:24:52;;;;;;;1.02;0.40;;;22.10;52.10;;;;;;5146848;27;45432;-71
2023/08/06 10:27:22;;;;;;;0.40;0.40;;;22.10;52.20;;;;;;5144887;27;45427;-71
2023/08/06 10:29:50;;;;;;;0.30;0.30;;;22.10;52.20;;;;;;5146301;27;46583;-71
2023/08/06 10:32:19;;;;;;;1.42;0.30;;;22.10;52.30;;;;;;5143416;27;45237;-72
2023/08/06 10:34:58;;;;;;;0.40;0.40;;;22.10;52.20;;;;;;5146418;27;45434;-72
2023/08/06 10:37:25;;;;;;;0.47;0.20;;;22.10;52.20;;;;;;5144420;27;45500;-72
2023/08/06 10:39:52;;;;;;;0.40;0.30;;;22.10;52.20;;;;;;5143990;27;47317;-72
2023/08/06 10:42:23;;;;;;;0.77;0.35;;;22.00;52.10;;;;;;5147303;27;45479;-72
2023/08/06 10:45:13;;;;;;;0.57;0.30;;;22.10;52.10;;;;;;5145900;27;45458;-73
2023/08/06 10:47:41;;;;;;;1.05;0.50;;;22.10;52.20;;;;;;5133209;27;44755;-75
2023/08/06 10:50:08;;;;;;;2.58;0.50;;;22.00;52.40;;;;;;5137806;27;45971;-73
2023/08/06 10:52:35;;;;;;;0.30;0.30;;;22.10;52.80;;;;;;5142374;27;45269;-70
2023/08/06 10:55:02;;;;;;;2.15;0.40;;;22.10;52.80;;;;;;5143259;27;45449;-72
2023/08/06 10:57:29;;;;;;;3.10;0.68;;;22.10;53.20;;;;;;5141530;27;45355;-71
2023/08/06 10:59:56;;;;;;;1.95;0.60;;;22.10;53.20;;;;;;5122777;27;47282;-71
2023/08/06 11:02:22;;;;;;;2.72;0.85;;;22.20;52.90;;;;;;5123168;27;45465;-72
2023/08/06 11:04:50;;;;;;;1.55;0.70;;;22.20;52.50;;;;;;5130493;27;45429;-72
2023/08/06 11:07:17;;;;;;;0.65;0.45;;;22.20;52.50;;;;;;5139825;27;45556;-71
2023/08/06 11:09:44;;;;;;;0.40;0.40;;;22.20;52.40;;;;;;5143359;27;45403;-71
2023/08/06 11:12:11;;;;;;;1.45;0.47;;;22.20;52.30;;;;;;5141048;27;45433;-70
2023/08/06 11:14:38;;;;;;;0.65;0.43;;;22.20;52.30;;;;;;5143733;27;45595;-72
2023/08/06 11:17:05;;;;;;;1.02;0.30;;;22.20;52.20;;;;;;5151109;27;45691;-72
2023/08/06 11:19:32;;;;;;;0.65;0.40;;;22.20;52.30;;;;;;5151976;27;46751;-72
2023/08/06 11:22:02;;;;;;;1.73;0.40;;;22.10;52.20;;;;;;5143585;27;45405;-73
2023/08/06 11:24:28;;;;;;;1.85;0.50;;;22.10;52.20;;;;;;5148768;27;45464;-72
2023/08/06 11:26:55;;;;;;;0.73;0.40;;;22.10;52.30;;;;;;5144857;27;45457;-72
2023/08/06 11:29:23;;;;;;;0.95;0.35;;;22.10;52.30;;;;;;5148442;27;45762;-71
2023/08/06 11:31:49;;;;;;;0.47;0.38;;;22.10;52.30;;;;;;5144535;27;45535;-71
2023/08/06 11:34:17;;;;;;;0.30;0.22;;;22.10;52.40;;;;;;5152736;27;45305;-71
2023/08/06 11:36:44;;;;;;;0.30;0.30;;;22.10;52.40;;;;;;5150010;27;45350;-71
2023/08/06 11:39:12;;;;;;;0.68;0.30;;;22.10;52.40;;;;;;5146773;27;46278;-71
2023/08/06 11:41:39;;;;;;;0.30;0.30;;;22.00;52.40;;;;;;5149259;27;45256;-71
2023/08/06 11:44:06;;;;;;;0.68;0.30;;;22.00;52.50;;;;;;5149550;27;45255;-71
2023/08/06 11:46:52;;;;;;;1.65;0.30;;;22.00;52.40;;;;;;5149574;27;45355;-71
2023/08/06 11:49:21;;;;;;;0.50;0.40;;;22.00;52.40;;;;;;5149124;27;46384;-71
2023/08/06 11:51:48;;;;;;;0.90;0.40;;;22.00;52.40;;;;;;5132427;27;45344;-71
2023/08/06 11:54:16;;;;;;;0.63;0.40;;;22.00;52.50;;;;;;5146338;27;45425;-71
2023/08/06 11:56:43;;;;;;;0.75;0.25;;;22.00;52.50;;;;;;5149510;27;45438;-71
2023/08/06 11:59:10;;;;;;;0.63;0.38;;;22.00;53.00;;;;;;5148581;27;46375;-70
2023/08/06 12:01:37;;;;;;;0.30;0.30;;;22.00;52.40;;;;;;5148885;27;45387;-71
2023/08/06 12:04:06;;;;;;;0.43;0.38;;;22.00;52.50;;;;;;5146795;27;45339;-72
2023/08/06 12:06:42;;;;;;;2.60;0.32;;;22.00;52.50;;;;;;5128454;27;45639;-71
2023/08/06 12:09:10;;;;;;;0.20;0.20;;;22.00;52.50;;;;;;5136991;27;46339;-71
2023/08/06 12:11:38;;;;;;;0.52;0.52;;;22.00;52.60;;;;;;5136518;27;45320;-71
2023/08/06 12:14:05;;;;;;;0.40;0.40;;;22.00;52.70;;;;;;5144989;27;45264;-71
2023/08/06 12:16:31;;;;;;;0.50;0.30;;;22.00;52.70;;;;;;5149624;27;45244;-72
2023/08/06 12:18:58;;;;;;;1.08;0.20;;;21.90;52.60;;;;;;5149128;27;46250;-71
2023/08/06 12:21:25;;;;;;;0.55;0.40;;;21.90;53.20;;;;;;5149093;27;45272;-71
2023/08/06 12:23:52;;;;;;;0.30;0.25;;;21.90;52.40;;;;;;5149234;27;45312;-71
2023/08/06 12:26:18;;;;;;;0.20;0.20;;;21.90;52.40;;;;;;5149533;27;45261;-71
2023/08/06 12:28:47;;;;;;;0.85;0.30;;;22.00;52.50;;;;;;5149279;27;45210;-71
2023/08/06 12:31:13;;;;;;;0.35;0.20;;;21.90;52.40;;;;;;5149044;27;45398;-71
2023/08/06 12:33:40;;;;;;;0.20;0.20;;;21.90;52.40;;;;;;5149527;27;45413;-71
2023/08/06 12:36:07;;;;;;;1.00;0.40;;;21.90;52.50;;;;;;5149405;27;45398;-71
2023/08/06 12:38:34;;;;;;;1.20;0.38;;;21.90;52.50;;;;;;5148830;27;45245;-71
2023/08/06 12:41:00;;;;;;;0.20;0.20;;;21.90;52.50;;;;;;5148829;27;45299;-71
2023/08/06 12:43:27;;;;;;;0.35;0.28;;;21.90;52.50;;;;;;5148926;27;45185;-71
2023/08/06 12:45:55;;;;;;;0.35;0.20;;;21.90;52.60;;;;;;5148788;27;45321;-70
2023/08/06 12:48:22;;;;;;;0.40;0.40;;;21.90;52.80;;;;;;5147892;27;48699;-70